createdAt,value
2017-11-30T00:00:33.742Z,494.92
2017-11-30T00:03:01.261Z,329.23
2017-11-30T00:05:29.580Z,305.83
2017-11-30T00:07:57.164Z,449.20
2017-11-30T00:10:24.708Z,223.18
2017-11-30T00:12:52.249Z,392.27
2017-11-30T00:15:19.772Z,320.60
2017-11-30T00:17:48.204Z,355.10
2017-11-30T00:20:15.740Z,385.98
2017-11-30T00:22:43.283Z,403.85
2017-11-30T00:25:10.836Z,532.55
2017-11-30T00:27:39.146Z,305.17
2017-11-30T00:30:06.680Z,294.65
2017-11-30T00:32:34.243Z,281.55
2017-11-30T00:35:01.776Z,358.50
2017-11-30T00:37:30.109Z,331.50
2017-11-30T00:39:57.630Z,273.50
2017-11-30T00:42:37.753Z,349.58
2017-11-30T00:45:06.044Z,194.68
2017-11-30T00:47:34.340Z,164.55
2017-11-30T00:50:01.899Z,164.93
2017-11-30T00:52:29.436Z,241.05
2017-11-30T00:54:57.710Z,226.88
2017-11-30T00:57:26.032Z,143.68
2017-11-30T00:59:53.570Z,261.92
2017-11-30T01:02:21.081Z,262.58
2017-11-30T01:04:48.650Z,173.75
2017-11-30T01:07:16.180Z,262.17
2017-11-30T01:09:43.738Z,354.35
2017-11-30T01:12:11.278Z,156.23
2017-11-30T01:14:38.807Z,265.85
2017-11-30T01:17:07.084Z,259.42
2017-11-30T01:19:34.645Z,186.90
2017-11-30T01:22:02.946Z,255.90
2017-11-30T01:24:30.482Z,260.85
2017-11-30T01:26:58.785Z,190.20
2017-11-30T01:29:26.387Z,178.38
2017-11-30T01:31:53.940Z,256.67
2017-11-30T01:34:21.455Z,198.32
2017-11-30T01:36:49.008Z,369.33
2017-11-30T01:39:16.521Z,138.85
2017-11-30T01:41:44.057Z,170.93
2017-11-30T01:44:11.609Z,192.35
2017-11-30T01:46:39.137Z,202.48
2017-11-30T01:49:06.673Z,121.50
2017-11-30T01:51:34.236Z,150.82
2017-11-30T01:54:02.517Z,230.18
2017-11-30T01:56:30.817Z,140.45
2017-11-30T01:58:58.343Z,174.77
2017-11-30T02:01:26.646Z,192.32
2017-11-30T02:03:54.173Z,129.70
2017-11-30T02:06:22.485Z,140.77
2017-11-30T02:08:50.012Z,101.80
2017-11-30T02:11:17.525Z,105.15
2017-11-30T02:13:45.078Z,104.00
2017-11-30T02:16:12.614Z,105.30
2017-11-30T02:18:40.165Z,96.90
2017-11-30T02:21:08.442Z,102.35
2017-11-30T02:23:36.736Z,93.80
2017-11-30T02:26:04.302Z,89.03
2017-11-30T02:28:31.828Z,93.30
2017-11-30T02:31:00.120Z,94.25
2017-11-30T02:33:27.663Z,94.37
2017-11-30T02:35:55.964Z,75.80
2017-11-30T02:38:23.543Z,79.25
2017-11-30T02:40:51.046Z,89.97
2017-11-30T02:43:18.841Z,74.87
2017-11-30T02:45:46.388Z,89.72
2017-11-30T02:48:14.684Z,81.28
2017-11-30T02:50:42.222Z,72.00
2017-11-30T02:53:10.522Z,80.30
2017-11-30T02:55:38.096Z,74.57
2017-11-30T02:58:05.680Z,77.07
2017-11-30T03:00:33.255Z,80.35
2017-11-30T03:03:00.780Z,72.90
2017-11-30T03:05:28.306Z,71.45
2017-11-30T03:07:55.878Z,72.22
2017-11-30T03:10:23.543Z,72.32
2017-11-30T03:12:51.054Z,65.80
2017-11-30T03:15:18.590Z,69.70
2017-11-30T03:17:46.121Z,72.65
2017-11-30T03:20:13.879Z,60.38
2017-11-30T03:22:41.424Z,66.80
2017-11-30T03:25:08.977Z,57.90
2017-11-30T03:27:36.485Z,63.70
2017-11-30T03:30:04.033Z,61.40
2017-11-30T03:32:31.555Z,59.90
2017-11-30T03:34:59.088Z,60.78
2017-11-30T03:37:26.644Z,57.80
2017-11-30T03:39:54.180Z,66.97
2017-11-30T03:42:21.761Z,58.60
2017-11-30T03:44:50.056Z,69.87
2017-11-30T03:47:18.353Z,65.57
2017-11-30T03:49:45.992Z,63.50
2017-11-30T03:52:14.284Z,63.53
2017-11-30T03:54:41.849Z,61.92
2017-11-30T03:57:09.381Z,56.13
2017-11-30T03:59:37.701Z,59.53
2017-11-30T04:02:05.239Z,59.88
2017-11-30T04:04:32.767Z,62.33
2017-11-30T04:07:00.320Z,51.65
2017-11-30T04:09:27.825Z,54.97
2017-11-30T04:11:55.370Z,53.22
2017-11-30T04:14:22.901Z,50.50
2017-11-30T04:16:51.205Z,46.35
2017-11-30T04:19:18.733Z,51.03
2017-11-30T04:21:46.255Z,46.05
2017-11-30T04:24:13.801Z,48.90
2017-11-30T04:26:41.333Z,52.80
2017-11-30T04:29:08.892Z,51.97
2017-11-30T04:31:37.171Z,44.42
2017-11-30T04:34:04.713Z,43.15
2017-11-30T04:36:33.008Z,53.10
2017-11-30T04:39:00.528Z,57.13
2017-11-30T04:41:28.076Z,52.78
2017-11-30T04:43:55.668Z,49.58
2017-11-30T04:46:23.969Z,53.83
2017-11-30T04:48:51.500Z,48.15
2017-11-30T04:51:19.776Z,50.70
2017-11-30T04:53:48.083Z,53.63
2017-11-30T04:56:15.633Z,59.42
2017-11-30T04:58:43.165Z,57.90
2017-11-30T05:01:11.479Z,54.10
2017-11-30T05:03:38.995Z,40.65
2017-11-30T05:06:06.555Z,45.53
2017-11-30T05:08:34.071Z,41.85
2017-11-30T05:11:01.605Z,38.90
2017-11-30T05:13:29.205Z,50.83
2017-11-30T05:15:56.717Z,46.92
2017-11-30T05:18:24.225Z,52.40
2017-11-30T05:20:51.758Z,53.10
2017-11-30T05:23:19.280Z,52.53
2017-11-30T05:25:47.564Z,40.42
2017-11-30T05:28:15.120Z,45.58
2017-11-30T05:30:43.413Z,44.67
2017-11-30T05:33:10.940Z,50.63
2017-11-30T05:35:38.470Z,44.20
2017-11-30T05:38:05.991Z,45.72
2017-11-30T05:40:33.512Z,45.12
2017-11-30T05:43:01.046Z,52.25
2017-11-30T05:45:28.575Z,40.80
2017-11-30T05:47:56.109Z,49.13
2017-11-30T05:50:24.393Z,52.42
2017-11-30T05:52:51.936Z,46.37
2017-11-30T05:55:20.205Z,48.42
2017-11-30T05:57:48.478Z,48.42
2017-11-30T06:00:16.794Z,48.53
2017-11-30T06:02:44.330Z,49.80
2017-11-30T06:05:12.640Z,54.35
2017-11-30T06:07:40.163Z,47.00
2017-11-30T06:10:08.462Z,47.50
2017-11-30T06:12:35.987Z,48.05
2017-11-30T06:15:04.284Z,47.78
2017-11-30T06:17:31.877Z,53.72
2017-11-30T06:19:59.408Z,45.85
2017-11-30T06:22:26.933Z,49.58
2017-11-30T06:24:54.479Z,66.50
2017-11-30T06:27:22.001Z,54.10
2017-11-30T06:29:49.534Z,57.20
2017-11-30T06:32:17.037Z,54.63
2017-11-30T06:34:44.584Z,43.15
2017-11-30T06:37:12.113Z,45.00
2017-11-30T06:39:39.659Z,46.78
2017-11-30T06:42:07.931Z,46.63
2017-11-30T06:44:36.229Z,50.92
2017-11-30T06:47:03.782Z,51.58
2017-11-30T06:49:31.313Z,49.08
2017-11-30T06:51:58.865Z,48.75
2017-11-30T06:54:26.387Z,44.53
2017-11-30T06:56:53.941Z,46.58
2017-11-30T06:59:21.450Z,39.38
2017-11-30T07:01:48.976Z,49.17
2017-11-30T07:04:16.531Z,48.28
2017-11-30T07:06:44.058Z,56.10
2017-11-30T07:09:11.673Z,44.28
2017-11-30T07:11:39.304Z,45.50
2017-11-30T07:14:06.835Z,49.75
2017-11-30T07:16:34.351Z,47.97
2017-11-30T07:19:01.899Z,58.90
2017-11-30T07:21:29.410Z,67.62
2017-11-30T07:23:56.918Z,56.47
2017-11-30T07:26:24.476Z,58.67
2017-11-30T07:28:51.989Z,58.67
2017-11-30T07:31:19.536Z,65.07
2017-11-30T07:33:48.099Z,58.40
2017-11-30T07:36:15.626Z,65.32
2017-11-30T07:38:43.138Z,65.60
2017-11-30T07:41:10.642Z,60.05
2017-11-30T07:43:38.169Z,69.87
2017-11-30T07:46:05.698Z,71.22
2017-11-30T07:48:33.998Z,65.18
2017-11-30T07:51:01.553Z,94.32
2017-11-30T07:53:29.092Z,81.35
2017-11-30T07:55:57.409Z,50.12
2017-11-30T07:58:24.923Z,44.80
2017-11-30T08:00:53.215Z,45.50
2017-11-30T08:03:21.542Z,54.25
2017-11-30T08:05:49.077Z,46.13
2017-11-30T08:08:16.586Z,49.25
2017-11-30T08:10:44.132Z,48.30
2017-11-30T08:13:11.655Z,51.97
2017-11-30T08:15:39.226Z,48.83
2017-11-30T08:18:06.752Z,48.10
2017-11-30T08:20:35.073Z,52.35
2017-11-30T08:23:02.586Z,41.13
2017-11-30T08:25:30.857Z,51.95
2017-11-30T08:27:59.169Z,46.95
2017-11-30T08:30:26.688Z,51.58
2017-11-30T08:32:54.989Z,42.20
2017-11-30T08:35:22.503Z,48.22
2017-11-30T08:37:50.023Z,48.50
2017-11-30T08:40:17.557Z,64.20
2017-11-30T08:42:45.856Z,73.57
2017-11-30T08:45:13.408Z,61.65
2017-11-30T08:47:40.941Z,45.47
2017-11-30T08:50:08.504Z,51.00
2017-11-30T08:52:36.830Z,51.83
2017-11-30T08:55:04.336Z,64.70
2017-11-30T08:57:31.885Z,51.35
2017-11-30T08:59:59.413Z,44.97
2017-11-30T09:02:26.945Z,40.85
2017-11-30T09:04:54.458Z,57.40
2017-11-30T09:07:21.985Z,45.38
2017-11-30T09:09:49.538Z,43.35
2017-11-30T09:12:17.046Z,45.05
2017-11-30T09:14:44.550Z,40.55
2017-11-30T09:17:12.101Z,43.92
2017-11-30T09:19:39.625Z,42.05
2017-11-30T09:22:07.927Z,52.90
2017-11-30T09:24:35.457Z,45.05
2017-11-30T09:27:03.029Z,40.85
2017-11-30T09:29:30.525Z,46.83
2017-11-30T09:31:58.033Z,49.33
2017-11-30T09:34:26.344Z,44.70
2017-11-30T09:36:53.858Z,44.22
2017-11-30T09:39:21.404Z,45.60
2017-11-30T09:41:48.929Z,44.17
2017-11-30T09:44:16.464Z,39.95
2017-11-30T09:46:44.777Z,44.25
2017-11-30T09:49:12.300Z,46.88
2017-11-30T09:51:40.603Z,42.15
2017-11-30T09:54:08.176Z,33.35
2017-11-30T09:56:35.723Z,37.35
2017-11-30T09:59:03.243Z,35.25
2017-11-30T10:01:31.542Z,39.72
2017-11-30T10:03:59.083Z,35.53
2017-11-30T10:06:27.381Z,37.42
2017-11-30T10:08:54.927Z,37.00
2017-11-30T10:11:22.456Z,41.42
2017-11-30T10:13:49.992Z,41.53
2017-11-30T10:16:17.536Z,45.25
2017-11-30T10:18:45.082Z,37.05
2017-11-30T10:21:12.647Z,37.17
2017-11-30T10:23:40.150Z,38.17
2017-11-30T10:26:07.672Z,38.08
2017-11-30T10:28:35.225Z,32.65
2017-11-30T10:31:02.748Z,40.15
2017-11-30T10:33:31.047Z,39.30
2017-11-30T10:35:58.584Z,36.50
2017-11-30T10:38:26.876Z,41.70
2017-11-30T10:40:54.420Z,45.55
2017-11-30T10:43:22.727Z,50.25
2017-11-30T10:45:50.248Z,44.88
2017-11-30T10:48:18.571Z,56.15
2017-11-30T10:50:46.106Z,45.78
2017-11-30T10:53:13.609Z,42.70
2017-11-30T10:55:41.119Z,47.78
2017-11-30T10:58:09.423Z,47.03
2017-11-30T11:00:36.938Z,48.08
2017-11-30T11:03:04.442Z,53.47
2017-11-30T11:05:31.988Z,60.65
2017-11-30T11:07:59.507Z,50.78
2017-11-30T11:10:27.033Z,64.12
2017-11-30T11:12:54.570Z,56.78
2017-11-30T11:15:22.093Z,64.35
2017-11-30T11:17:49.602Z,53.67
2017-11-30T11:20:17.138Z,50.50
2017-11-30T11:22:44.642Z,51.05
2017-11-30T11:25:12.145Z,91.05
2017-11-30T11:27:40.464Z,57.40
2017-11-30T11:30:07.993Z,63.20
2017-11-30T11:32:35.507Z,50.50
2017-11-30T11:35:03.034Z,50.17
2017-11-30T11:37:30.533Z,46.80
2017-11-30T11:39:58.073Z,62.83
2017-11-30T11:42:25.856Z,63.60
2017-11-30T11:44:53.385Z,60.53
2017-11-30T11:47:20.889Z,56.75
2017-11-30T11:49:49.204Z,68.22
2017-11-30T11:52:16.866Z,62.78
2017-11-30T11:54:44.391Z,71.10
2017-11-30T11:57:12.709Z,58.40
2017-11-30T11:59:40.232Z,64.62
2017-11-30T12:02:08.530Z,97.05
2017-11-30T12:04:36.033Z,80.40
2017-11-30T12:07:03.565Z,75.65
2017-11-30T12:09:31.103Z,70.87
2017-11-30T12:11:58.617Z,82.05
2017-11-30T12:14:26.121Z,77.35
2017-11-30T12:16:53.660Z,66.87
2017-11-30T12:19:21.934Z,73.68
2017-11-30T12:21:50.221Z,69.57
2017-11-30T12:24:17.781Z,73.45
2017-11-30T12:26:45.286Z,65.12
2017-11-30T12:29:12.818Z,57.85
2017-11-30T12:31:40.417Z,67.28
2017-11-30T12:34:07.949Z,69.25
2017-11-30T12:36:35.490Z,62.42
2017-11-30T12:39:03.044Z,63.58
2017-11-30T12:41:30.573Z,74.85
2017-11-30T12:43:58.860Z,69.07
2017-11-30T12:46:27.167Z,55.97
2017-11-30T12:48:54.692Z,55.88
2017-11-30T12:51:22.970Z,52.58
2017-11-30T12:53:51.283Z,51.70
2017-11-30T12:56:18.804Z,52.28
2017-11-30T12:58:47.115Z,62.60
2017-11-30T13:01:14.846Z,70.15
2017-11-30T13:03:43.129Z,58.65
2017-11-30T13:06:11.414Z,52.65
2017-11-30T13:08:39.735Z,77.00
2017-11-30T13:11:07.273Z,56.47
2017-11-30T13:13:34.775Z,62.15
2017-11-30T13:16:02.319Z,60.65
2017-11-30T13:18:29.854Z,76.70
2017-11-30T13:20:57.368Z,51.25
2017-11-30T13:23:25.701Z,63.17
2017-11-30T13:25:53.221Z,65.62
2017-11-30T13:28:20.746Z,67.30
2017-11-30T13:30:48.272Z,64.53
2017-11-30T13:33:15.777Z,57.22
2017-11-30T13:35:44.062Z,63.45
2017-11-30T13:38:11.634Z,75.78
2017-11-30T13:40:39.132Z,54.92
2017-11-30T13:43:06.631Z,59.60
2017-11-30T13:45:34.979Z,63.20
2017-11-30T13:48:02.484Z,69.80
2017-11-30T13:50:30.060Z,63.75
2017-11-30T13:52:57.594Z,98.10
2017-11-30T13:55:25.107Z,110.68
2017-11-30T13:57:52.632Z,56.00
2017-11-30T14:00:20.197Z,87.72
2017-11-30T14:02:47.709Z,58.38
2017-11-30T14:05:15.985Z,61.78
2017-11-30T14:07:43.532Z,56.55
2017-11-30T14:10:11.056Z,55.12
2017-11-30T14:12:38.565Z,50.20
2017-11-30T14:15:06.115Z,46.20
2017-11-30T14:17:33.638Z,43.35
2017-11-30T14:20:01.160Z,48.25
2017-11-30T14:22:29.457Z,43.20
2017-11-30T14:24:57.002Z,49.75
2017-11-30T14:27:25.298Z,38.83
2017-11-30T14:29:52.861Z,65.60
2017-11-30T14:32:20.391Z,45.85
2017-11-30T14:34:47.893Z,47.58
2017-11-30T14:37:15.467Z,56.83
2017-11-30T14:39:42.992Z,43.05
2017-11-30T14:42:10.527Z,39.47
2017-11-30T14:44:38.061Z,43.22
2017-11-30T14:47:05.571Z,45.22
2017-11-30T14:49:33.088Z,38.88
2017-11-30T14:52:01.425Z,44.38
2017-11-30T14:54:28.928Z,37.72
2017-11-30T14:56:57.203Z,44.10
2017-11-30T14:59:25.518Z,45.47
2017-11-30T15:01:53.040Z,36.13
2017-11-30T15:04:21.332Z,41.72
2017-11-30T15:06:48.862Z,47.20
2017-11-30T15:09:17.146Z,40.12
2017-11-30T15:11:45.416Z,37.40
2017-11-30T15:14:13.832Z,46.40
2017-11-30T15:16:41.353Z,34.67
2017-11-30T15:19:09.648Z,29.23
2017-11-30T15:21:37.195Z,39.40
2017-11-30T15:24:05.483Z,38.38
2017-11-30T15:26:33.003Z,50.67
2017-11-30T15:29:00.535Z,39.08
2017-11-30T15:31:28.062Z,44.20
2017-11-30T15:33:55.573Z,50.65
2017-11-30T15:36:23.112Z,41.22
2017-11-30T15:38:50.623Z,50.63
2017-11-30T15:41:18.891Z,66.32
2017-11-30T15:43:47.172Z,64.15
2017-11-30T15:46:15.471Z,58.30
2017-11-30T15:48:43.000Z,57.35
2017-11-30T15:51:11.289Z,72.45
2017-11-30T15:53:39.552Z,47.75
2017-11-30T15:56:07.862Z,51.40
2017-11-30T15:58:35.391Z,44.38
2017-11-30T16:01:03.683Z,50.53
2017-11-30T16:03:31.255Z,47.30
2017-11-30T16:05:58.769Z,55.67
2017-11-30T16:08:26.274Z,41.63
2017-11-30T16:10:53.822Z,47.83
2017-11-30T16:13:21.338Z,41.88
2017-11-30T16:15:48.863Z,46.37
2017-11-30T16:18:16.400Z,44.22
2017-11-30T16:20:43.904Z,46.72
2017-11-30T16:23:11.412Z,31.67
2017-11-30T16:25:38.954Z,39.03
2017-11-30T16:28:07.251Z,37.78
2017-11-30T16:30:34.779Z,29.95
2017-11-30T16:33:02.300Z,34.75
2017-11-30T16:35:29.824Z,30.48
2017-11-30T16:37:57.361Z,45.78
2017-11-30T16:40:24.973Z,37.60
2017-11-30T16:42:52.532Z,39.63
2017-11-30T16:45:20.188Z,62.60
2017-11-30T16:47:47.710Z,60.60
2017-11-30T16:50:15.999Z,52.00
2017-11-30T16:52:44.315Z,82.65
2017-11-30T16:55:11.816Z,84.30
2017-11-30T16:57:39.322Z,35.05
2017-11-30T17:00:06.859Z,55.50
2017-11-30T17:02:34.383Z,176.87
2017-11-30T17:05:01.916Z,386.37
2017-11-30T17:07:29.452Z,191.40
2017-11-30T17:09:56.963Z,197.18
2017-11-30T17:12:24.470Z,66.15
2017-11-30T17:14:52.012Z,70.30
2017-11-30T17:17:19.520Z,142.52
2017-11-30T17:19:47.034Z,181.80
2017-11-30T17:22:14.594Z,220.43
2017-11-30T17:24:42.101Z,40.58
2017-11-30T17:27:09.628Z,66.87
2017-11-30T17:29:37.174Z,72.78
2017-11-30T17:32:04.698Z,38.20
2017-11-30T17:34:33.007Z,38.17
2017-11-30T17:37:00.581Z,38.17
2017-11-30T17:39:28.107Z,50.30
2017-11-30T17:41:56.380Z,33.85
2017-11-30T17:44:23.908Z,34.95
2017-11-30T17:46:51.431Z,35.30
2017-11-30T17:49:18.956Z,27.85
2017-11-30T17:51:47.240Z,24.60
2017-11-30T17:54:15.533Z,53.63
2017-11-30T17:56:43.068Z,34.25
2017-11-30T17:59:10.614Z,31.42
2017-11-30T18:01:38.135Z,36.03
2017-11-30T18:04:05.691Z,41.80
2017-11-30T18:06:33.218Z,41.17
2017-11-30T18:09:01.489Z,50.05
2017-11-30T18:11:29.033Z,34.97
2017-11-30T18:13:56.559Z,36.65
2017-11-30T18:16:24.086Z,47.50
2017-11-30T18:18:52.376Z,33.35
2017-11-30T18:21:19.903Z,33.55
2017-11-30T18:23:48.196Z,34.30
2017-11-30T18:26:16.542Z,27.60
2017-11-30T18:28:44.072Z,33.60
2017-11-30T18:31:11.580Z,32.67
2017-11-30T18:33:39.883Z,32.92
2017-11-30T18:36:07.406Z,48.95
2017-11-30T18:38:34.931Z,43.33
2017-11-30T18:41:02.478Z,46.88
2017-11-30T18:43:29.985Z,49.20
2017-11-30T18:45:58.288Z,50.20
2017-11-30T18:48:25.898Z,64.87
2017-11-30T18:50:53.419Z,69.32
2017-11-30T18:53:20.924Z,50.38
2017-11-30T18:55:48.461Z,45.92
2017-11-30T18:58:15.978Z,43.83
2017-11-30T19:00:44.273Z,43.80
2017-11-30T19:03:11.804Z,44.55
2017-11-30T19:05:40.091Z,55.17
2017-11-30T19:08:08.356Z,58.60
2017-11-30T19:10:36.668Z,83.30
2017-11-30T19:13:04.190Z,65.90
2017-11-30T19:15:32.485Z,91.75
2017-11-30T19:18:00.787Z,41.92
2017-11-30T19:20:28.292Z,46.25
2017-11-30T19:22:55.912Z,46.15
2017-11-30T19:25:23.431Z,53.25
2017-11-30T19:27:51.699Z,147.05
2017-11-30T19:30:20.151Z,57.70
2017-11-30T19:32:47.666Z,43.53
2017-11-30T19:35:15.238Z,45.50
2017-11-30T19:37:42.815Z,39.22
2017-11-30T19:40:10.356Z,43.75
2017-11-30T19:42:37.912Z,38.47
2017-11-30T19:45:05.472Z,38.95
2017-11-30T19:47:32.990Z,46.05
2017-11-30T19:50:00.506Z,51.30
2017-11-30T19:52:28.055Z,46.55
2017-11-30T19:54:55.564Z,56.90
2017-11-30T19:57:23.086Z,58.58
2017-11-30T19:59:50.624Z,55.88
2017-11-30T20:02:18.151Z,55.90
2017-11-30T20:04:46.443Z,50.03
2017-11-30T20:07:13.990Z,54.72
2017-11-30T20:09:42.264Z,46.58
2017-11-30T20:12:10.554Z,56.20
2017-11-30T20:14:38.093Z,51.15
2017-11-30T20:17:06.365Z,59.25
2017-11-30T20:19:34.632Z,56.88
2017-11-30T20:22:02.183Z,62.22
2017-11-30T20:24:29.718Z,64.55
2017-11-30T20:26:57.235Z,58.97
2017-11-30T20:29:25.530Z,59.92
2017-11-30T20:31:53.046Z,55.63
2017-11-30T20:34:21.320Z,49.67
2017-11-30T20:36:49.613Z,58.47
2017-11-30T20:39:17.903Z,52.90
2017-11-30T20:41:45.427Z,51.88
2017-11-30T20:44:12.953Z,47.17
2017-11-30T20:46:40.469Z,47.38
2017-11-30T20:49:08.773Z,61.78
2017-11-30T20:51:36.290Z,66.28
2017-11-30T20:54:04.568Z,51.37
2017-11-30T20:56:32.863Z,53.00
2017-11-30T20:59:00.396Z,55.92
2017-11-30T21:01:27.923Z,55.03
2017-11-30T21:03:55.465Z,57.58
2017-11-30T21:06:22.992Z,60.00
2017-11-30T21:08:51.287Z,48.33
2017-11-30T21:11:18.842Z,50.33
2017-11-30T21:13:47.131Z,57.47
2017-11-30T21:16:14.667Z,60.83
2017-11-30T21:18:42.960Z,57.42
2017-11-30T21:21:10.456Z,60.42
2017-11-30T21:23:37.960Z,58.97
2017-11-30T21:26:06.270Z,58.72
2017-11-30T21:28:33.778Z,59.55
2017-11-30T21:31:01.286Z,64.68
2017-11-30T21:33:28.834Z,65.20
2017-11-30T21:35:56.340Z,67.65
2017-11-30T21:38:23.859Z,51.42
2017-11-30T21:40:51.426Z,53.75
2017-11-30T21:43:18.932Z,61.37
2017-11-30T21:45:46.438Z,49.75
2017-11-30T21:48:13.987Z,51.88
2017-11-30T21:50:41.492Z,48.90
2017-11-30T21:53:09.021Z,56.03
2017-11-30T21:55:36.559Z,64.60
2017-11-30T21:58:04.087Z,54.90
2017-11-30T22:00:31.609Z,67.07
2017-11-30T22:02:59.127Z,73.37
2017-11-30T22:05:27.417Z,82.03
2017-11-30T22:07:54.915Z,77.47
2017-11-30T22:10:22.440Z,75.03
2017-11-30T22:12:49.963Z,69.22
2017-11-30T22:15:18.241Z,69.80
2017-11-30T22:17:46.565Z,71.95
2017-11-30T22:20:14.216Z,71.40
2017-11-30T22:22:42.570Z,73.07
2017-11-30T22:25:10.892Z,65.78
2017-11-30T22:27:38.410Z,64.95
2017-11-30T22:30:06.722Z,74.25
2017-11-30T22:32:34.243Z,67.05
2017-11-30T22:35:02.531Z,65.87
2017-11-30T22:37:30.056Z,55.03
2017-11-30T22:39:57.587Z,52.65
2017-11-30T22:42:25.106Z,53.45
2017-11-30T22:44:52.631Z,46.97
2017-11-30T22:47:20.132Z,47.45
2017-11-30T22:49:47.641Z,52.83
2017-11-30T22:52:15.181Z,55.55
2017-11-30T22:54:42.694Z,50.85
2017-11-30T22:57:10.198Z,59.80
2017-11-30T22:59:37.743Z,47.45
2017-11-30T23:02:05.258Z,57.08
2017-11-30T23:04:33.673Z,53.28
2017-11-30T23:07:01.192Z,47.85
2017-11-30T23:09:29.464Z,50.50
2017-11-30T23:11:57.024Z,50.25
2017-11-30T23:14:24.556Z,43.97
2017-11-30T23:16:52.055Z,49.45
2017-11-30T23:19:20.343Z,46.20
2017-11-30T23:21:47.848Z,51.17
2017-11-30T23:24:15.384Z,57.22
2017-11-30T23:26:42.884Z,39.90
2017-11-30T23:29:10.408Z,42.95
2017-11-30T23:31:37.950Z,43.08
2017-11-30T23:34:05.455Z,53.40
2017-11-30T23:36:32.956Z,43.87
2017-11-30T23:39:00.498Z,41.95
2017-11-30T23:41:28.767Z,51.45
2017-11-30T23:43:56.273Z,53.70
2017-11-30T23:46:23.805Z,43.80
2017-11-30T23:48:52.096Z,46.40
2017-11-30T23:51:19.636Z,41.90
2017-11-30T23:53:47.953Z,46.90
2017-11-30T23:56:15.507Z,46.22
2017-11-30T23:58:43.017Z,46.80
